Meath Environmental Platform

Observations for Trim Market St

Time AQI Temp °C Hum % Pres Pa CO μg/m³ H₂S μg/m³ NO μg/m³ NO₂ μg/m³ O₃ μg/m³ SO₂ μg/m³ PM1 μg/m³ PM2.5 μg/m³ PM10 μg/m³
Tuesday 25 August 2026
03:59 2 15.9 74 49,391 0.29 0 1.55 14.37 46.84 0 1.43 3.37 5.71
03:58 2 15.9 73 49,527 0.27 0 1.53 10.86 47.72 0 1.43 3.38 5.71
03:57 2 15.9 73 49,579 0.27 0 1.55 10.53 48.13 0 1.43 2.41 4.5
03:56 2 15.9 73 49,600 0.28 0 1.51 9.11 49.26 0 1.43 2.41 5.71
03:55 2 15.9 73 49,612 0.27 0 1.36 12.07 46.34 0 0.71 3.38 6.32
03:54 2 15.9 73 49,766 0.28 0 1.45 10.53 48.38 0 1.43 2.89 5.1
03:53 2 15.9 73 49,899 0.28 0 1.39 10.54 47.84 0 0.71 3.38 5.71
03:52 2 15.9 73 50,029 0.28 0 1.4 12.7 46.46 0 0.71 2.89 6.32
03:51 2 15.9 73 50,144 0.28 0 1.37 10.88 46.77 0 0.71 2.89 5.1
03:50 2 15.9 73 50,210 0.27 0 1.55 9.96 47.71 0 1.43 2.9 6.92
03:49 2 15.9 73 50,243 0.27 0 1.45 8.77 50.39 0 1.43 2.42 4.49
03:47 2 15.9 73 50,315 0.27 0 1.61 9.28 48.99 0 0.71 2.9 5.71
03:46 2 15.9 73 50,383 0.26 0 1.61 8.77 48.94 0 0.71 2.9 6.32
03:45 2 15.9 73 50,459 0.28 0 1.65 9.58 48.65 0 1.43 3.38 6.31
03:41 2 15.9 73 50,762 0.29 0 1.68 9.35 48.55 0 1.43 2.9 5.1
03:34 2 15.9 73 50,810 0.27 0 1.43 8.42 51.26 0 0.71 2.42 4.49
03:31 2 16 73 50,778 0.26 0 1.26 8.79 48.3 0 1.43 3.38 5.71
03:30 2 15.9 73 50,752 0.27 0 1.32 9.24 48.35 0 0.71 2.42 4.49
03:27 2 16 73 50,843 0.26 0 1.29 8.33 49.59 0 2.14 2.9 5.1
03:26 2 16 73 50,819 0.26 0 1.45 8.89 48.21 0 0.71 2.9 5.1